Change the Weather History Date:

Sunday, September 29, 2013

  Actual Average (KFLG) Record (KFLG)
Temperature  
Mean Temperature 50 °F 53 °F  
Max Temperature 69 °F 68 °F 83 °F (2010)
Min Temperature 32 °F 37 °F 22 °F (1902)
Degree Days  
Heating Degree Days 14 12  
Month to date heating degree days 217  
Since 1 July heating degree days 305  
Cooling Degree Days 0 0  
Month to date cooling degree days 0  
Year to date cooling degree days 114  
Moisture  
Dew Point 24 °F    
Average Humidity 37    
Maximum Humidity 64    
Minimum Humidity 16    
Precipitation  
Precipitation 0.00 in 0.07 in 1.70 in (1971)
Month to date precipitation 2.32  
Year to date precipitation 16.51  
Snow  
Snow 0.00 in 0.00 in 0.30 in (1905)
Month to date snowfall 0.0  
Since 1 July snowfall 0.0  
Snow Depth -    
Sea Level Pressure  
Sea Level Pressure 30.36 in    
Wind  
Wind Speed 9 mph (South)    
Max Wind Speed 14 mph    
Max Gust Speed 20 mph    
Visibility 10 miles    
Events      
T = Trace of Precipitation, MM = Missing Value Source: NWS Daily Summary

Daily Weather History Graph

Daily Weather History Graph

Search for Another Location

Airport or City:

Trip Planner

Search our weather history database for the weather conditions in past years. The results will help you decide how hot, cold, wet, or windy it might be!

Date:

Astronomy

Sep. 29, 2013 Rise Set
Actual Time 6:22 AM MST 6:15 PM MST
Civil Twilight 5:56 AM MST 6:40 PM MST
Nautical Twilight 5:27 AM MST 7:09 PM MST
Astronomical Twilight 4:57 AM MST 7:39 PM MST
Moon 1:16 AM MST (9/29) 3:04 PM MST (9/29)
Length of Visible Light 12h 43m
Length of Day
11h 52m
Waning Crescent, 26% of the Moon is Illuminated
Sep 29
Waning Crescent
Oct 4
New
Oct 11
First Quarter
Oct 18
Full
Oct 26
Last Quarter

Hourly Weather History & Observations

Time (MST) Temp. Windchill Dew Point Humidity Pressure Visibility Wind Dir Wind Speed Gust Speed Precip Events Conditions
12:15 AM 39.2 °F 33.0 °F 23.0 °F 52% 30.38 in 10.0 mi SSE 9.2 mph - N/A   Clear
12:35 AM 37.4 °F 30.3 °F 23.0 °F 56% 30.37 in 10.0 mi SSE 10.4 mph - N/A   Clear
12:55 AM 37.4 °F 30.8 °F 23.0 °F 56% 30.38 in 10.0 mi SSE 9.2 mph - N/A   Clear
1:15 AM 39.2 °F 34.2 °F 19.4 °F 45% 30.38 in 10.0 mi South 6.9 mph - N/A   Clear
1:35 AM 37.4 °F 32.1 °F 21.2 °F 52% 30.38 in 10.0 mi South 6.9 mph - N/A   Clear
1:55 AM 39.2 °F 33.0 °F 19.4 °F 45% 30.38 in 10.0 mi SSE 9.2 mph - N/A   Clear
2:15 AM 37.4 °F 30.8 °F 21.2 °F 52% 30.38 in 10.0 mi SSE 9.2 mph - N/A   Clear
2:35 AM 39.2 °F 34.2 °F 21.2 °F 49% 30.38 in 10.0 mi SSE 6.9 mph - N/A   Clear
2:55 AM 37.4 °F 31.4 °F 21.2 °F 52% 30.38 in 10.0 mi SSE 8.1 mph - N/A   Clear
3:15 AM 35.6 °F 29.2 °F 21.2 °F 56% 30.38 in 10.0 mi SSE 8.1 mph - N/A   Clear
3:35 AM 35.6 °F 28.6 °F 21.2 °F 56% 30.38 in 10.0 mi SSE 9.2 mph - N/A   Clear
3:55 AM 33.8 °F 25.8 °F 21.2 °F 60% 30.38 in 10.0 mi SSE 10.4 mph - N/A   Clear
4:15 AM 32.0 °F 24.2 °F 21.2 °F 64% 30.38 in 10.0 mi SSE 9.2 mph - N/A   Clear
4:35 AM 32.0 °F 24.8 °F 21.2 °F 64% 30.38 in 10.0 mi SSE 8.1 mph - N/A   Clear
4:55 AM 32.0 °F 23.6 °F 21.2 °F 64% 30.38 in 10.0 mi SSE 10.4 mph - N/A   Clear
5:15 AM 33.8 °F 25.8 °F 21.2 °F 60% 30.38 in 10.0 mi SSE 10.4 mph - N/A   Clear
5:35 AM 35.6 °F 28.0 °F 21.2 °F 56% 30.38 in 10.0 mi SSE 10.4 mph - N/A   Clear
5:55 AM 37.4 °F 29.8 °F 19.4 °F 48% 30.39 in 10.0 mi SSE 11.5 mph - N/A   Clear
6:15 AM 35.6 °F 28.0 °F 19.4 °F 52% 30.39 in 10.0 mi SSE 10.4 mph - N/A   Clear
6:35 AM 37.4 °F 30.3 °F 19.4 °F 48% 30.39 in 10.0 mi South 10.4 mph - N/A   Clear
6:55 AM 39.2 °F 33.0 °F 19.4 °F 45% 30.39 in 10.0 mi SSE 9.2 mph - N/A   Clear
7:15 AM 39.2 °F 33.0 °F 19.4 °F 45% 30.39 in 10.0 mi SSE 9.2 mph - N/A   Clear
7:35 AM 42.8 °F 38.0 °F 21.2 °F 42% 30.39 in 10.0 mi SSE 8.1 mph - N/A   Clear
7:55 AM 48.2 °F - 23.0 °F 37% 30.40 in 10.0 mi SE 5.8 mph - N/A   Clear
8:15 AM 53.6 °F - 26.6 °F 35% 30.41 in 10.0 mi SE 3.5 mph - N/A   Clear
8:35 AM 59.0 °F - 28.4 °F 31% 30.41 in 10.0 mi ESE 5.8 mph - N/A   Clear
8:55 AM 59.0 °F - 30.2 °F 34% 30.41 in 10.0 mi SSW 3.5 mph - N/A   Clear
9:15 AM 62.6 °F - 30.2 °F 30% 30.41 in 10.0 mi SSW 10.4 mph - N/A   Clear
9:35 AM 62.6 °F - 30.2 °F 30% 30.41 in 10.0 mi South 9.2 mph - N/A   Clear
9:55 AM 62.6 °F - 30.2 °F 30% 30.41 in 10.0 mi South 10.4 mph - N/A   Clear
10:15 AM 64.4 °F - 26.6 °F 24% 30.40 in 10.0 mi SW 8.1 mph - N/A   Clear
10:35 AM 64.4 °F - 24.8 °F 22% 30.40 in 10.0 mi SSW 10.4 mph - N/A   Clear
10:55 AM 66.2 °F - 26.6 °F 23% 30.39 in 10.0 mi SW 11.5 mph 19.6 mph N/A   Clear
11:15 AM 66.2 °F - 24.8 °F 21% 30.39 in 10.0 mi SW 10.4 mph - N/A   Clear
11:35 AM 66.2 °F - 24.8 °F 21% 30.39 in 10.0 mi SSW 9.2 mph - N/A   Clear
11:55 AM 68.0 °F - 26.6 °F 21% 30.38 in 10.0 mi SW 9.2 mph - N/A   Clear
12:15 PM 68.0 °F - 24.8 °F 20% 30.37 in 10.0 mi SW 13.8 mph - N/A   Clear
12:35 PM 68.0 °F - 24.8 °F 20% 30.37 in 10.0 mi SW 8.1 mph - N/A   Clear
12:55 PM 68.0 °F - 26.6 °F 21% 30.36 in 10.0 mi South 11.5 mph - N/A   Clear
1:15 PM 69.8 °F - 26.6 °F 20% 30.35 in 10.0 mi South 9.2 mph - N/A   Clear
1:35 PM 68.0 °F - 24.8 °F 20% 30.35 in 10.0 mi SW 11.5 mph 17.3 mph N/A   Clear
1:55 PM 69.8 °F - 26.6 °F 20% 30.35 in 10.0 mi SSW 11.5 mph - N/A   Clear
2:15 PM 69.8 °F - 23.0 °F 17% 30.34 in 10.0 mi SW 8.1 mph - N/A   Clear
2:35 PM 69.8 °F - 24.8 °F 18% 30.34 in 10.0 mi WSW 9.2 mph - N/A   Clear
2:55 PM 69.8 °F - 26.6 °F 20% 30.34 in 10.0 mi SW 5.8 mph - N/A   Clear
3:15 PM 69.8 °F - 24.8 °F 18% 30.33 in 10.0 mi SSW 9.2 mph - N/A   Clear
3:35 PM 69.8 °F - 21.2 °F 16% 30.33 in 10.0 mi SW 11.5 mph - N/A   Clear
3:55 PM 69.8 °F - 21.2 °F 16% 30.32 in 10.0 mi WSW 10.4 mph - N/A   Clear
4:15 PM 69.8 °F - 24.8 °F 18% 30.32 in 10.0 mi SW 6.9 mph - N/A   Clear
4:35 PM 69.8 °F - 26.6 °F 20% 30.32 in 10.0 mi SSW 11.5 mph - N/A   Clear
4:55 PM 68.0 °F - 24.8 °F 20% 30.32 in 10.0 mi SW 11.5 mph - N/A   Clear
5:15 PM 68.0 °F - 24.8 °F 20% 30.32 in 10.0 mi WSW 9.2 mph - N/A   Clear
5:35 PM 66.2 °F - 23.0 °F 19% 30.32 in 10.0 mi WSW 10.4 mph - N/A   Clear
5:55 PM 66.2 °F - 23.0 °F 19% 30.33 in 10.0 mi SW 6.9 mph - N/A   Clear
6:15 PM 62.6 °F - 24.8 °F 24% 30.33 in 10.0 mi SSW 6.9 mph - N/A   Clear
6:35 PM 59.0 °F - 24.8 °F 27% 30.33 in 10.0 mi SSW 6.9 mph - N/A   Clear
6:55 PM 57.2 °F - 23.0 °F 27% 30.33 in 10.0 mi SSW 8.1 mph - N/A   Clear
7:15 PM 57.2 °F - 23.0 °F 27% 30.33 in 10.0 mi SSW 8.1 mph - N/A   Clear
7:35 PM 53.6 °F - 24.8 °F 33% 30.33 in 10.0 mi SSE 5.8 mph - N/A   Clear
7:55 PM 55.4 °F - 21.2 °F 26% 30.33 in 10.0 mi SW 6.9 mph - N/A   Clear
8:15 PM 57.2 °F - 19.4 °F 23% 30.33 in 10.0 mi South 4.6 mph - N/A   Clear
8:35 PM 48.2 °F - 24.8 °F 40% 30.34 in 10.0 mi SSE 3.5 mph - N/A   Clear
8:55 PM 46.4 °F 42.9 °F 24.8 °F 43% 30.34 in 10.0 mi SSE 6.9 mph - N/A   Clear
9:15 PM 46.4 °F 45.2 °F 24.8 °F 43% 30.34 in 10.0 mi SSE 3.5 mph - N/A   Clear
9:35 PM 44.6 °F 40.2 °F 24.8 °F 46% 30.34 in 10.0 mi SSE 8.1 mph - N/A   Clear
9:55 PM 42.8 °F 38.0 °F 24.8 °F 49% 30.34 in 10.0 mi SSE 8.1 mph - N/A   Clear
10:15 PM 41.0 °F 35.8 °F 24.8 °F 53% 30.34 in 10.0 mi SSE 8.1 mph - N/A   Clear
10:35 PM 41.0 °F 35.2 °F 24.8 °F 53% 30.33 in 10.0 mi SSE 9.2 mph - N/A   Clear
10:55 PM 41.0 °F 39.0 °F 24.8 °F 53% 30.33 in 10.0 mi South 3.5 mph - N/A   Clear
11:15 PM 41.0 °F 38.0 °F 23.0 °F 49% 30.34 in 10.0 mi SSE 4.6 mph - N/A   Clear
11:35 PM 41.0 °F 36.4 °F 23.0 °F 49% 30.33 in 10.0 mi SSE 6.9 mph - N/A   Clear
11:55 PM 41.0 °F 36.4 °F 23.0 °F 49% 30.33 in 10.0 mi SSE 6.9 mph - N/A   Clear